sensor_id;sensor_type;location;lat;lon;timestamp;pressure;altitude;pressure_sealevel;temperature;humidity
21153;BME280;10734;44.792;20.482;2023-05-24T00:00:37;99598.53;;;18.91;nan
21153;BME280;10734;44.792;20.482;2023-05-24T00:03:04;99590.34;;;18.91;nan
21153;BME280;10734;44.792;20.482;2023-05-24T00:05:32;99582.31;;;18.89;nan
21153;BME280;10734;44.792;20.482;2023-05-24T00:08:03;99581.78;;;18.86;nan
21153;BME280;10734;44.792;20.482;2023-05-24T00:10:30;99586.69;;;18.82;nan
21153;BME280;10734;44.792;20.482;2023-05-24T00:12:57;99587.81;;;18.80;nan
21153;BME280;10734;44.792;20.482;2023-05-24T00:15:23;99584.25;;;18.79;nan
21153;BME280;10734;44.792;20.482;2023-05-24T00:17:50;99583.69;;;18.76;nan
21153;BME280;10734;44.792;20.482;2023-05-24T00:20:17;99571.38;;;18.72;nan
21153;BME280;10734;44.792;20.482;2023-05-24T00:22:46;99579.53;;;18.72;nan
21153;BME280;10734;44.792;20.482;2023-05-24T00:25:13;99584.72;;;18.65;nan
21153;BME280;10734;44.792;20.482;2023-05-24T00:27:39;99580.41;;;18.62;nan
21153;BME280;10734;44.792;20.482;2023-05-24T00:30:07;99577.69;;;18.62;nan
21153;BME280;10734;44.792;20.482;2023-05-24T00:32:34;99571.66;;;18.59;nan
21153;BME280;10734;44.792;20.482;2023-05-24T00:35:00;99580.13;;;18.56;nan
21153;BME280;10734;44.792;20.482;2023-05-24T00:37:27;99583.31;;;18.51;nan
21153;BME280;10734;44.792;20.482;2023-05-24T00:39:55;99583.91;;;18.45;nan
21153;BME280;10734;44.792;20.482;2023-05-24T00:42:21;99572.56;;;18.40;nan
21153;BME280;10734;44.792;20.482;2023-05-24T00:44:48;99575.47;;;18.38;nan
21153;BME280;10734;44.792;20.482;2023-05-24T00:47:15;99576.59;;;18.36;nan
21153;BME280;10734;44.792;20.482;2023-05-24T00:49:42;99581.50;;;18.32;nan
21153;BME280;10734;44.792;20.482;2023-05-24T00:52:10;99582.34;;;18.33;nan
21153;BME280;10734;44.792;20.482;2023-05-24T00:54:37;99583.22;;;18.33;nan
21153;BME280;10734;44.792;20.482;2023-05-24T00:57:06;99583.66;;;18.29;nan
21153;BME280;10734;44.792;20.482;2023-05-24T00:59:33;99582.06;;;18.26;nan
21153;BME280;10734;44.792;20.482;2023-05-24T01:02:00;99579.66;;;18.23;nan
21153;BME280;10734;44.792;20.482;2023-05-24T01:04:27;99581.81;;;18.19;nan
21153;BME280;10734;44.792;20.482;2023-05-24T01:07:01;99576.50;;;18.18;nan
21153;BME280;10734;44.792;20.482;2023-05-24T01:12:25;99586.56;;;18.17;nan
21153;BME280;10734;44.792;20.482;2023-05-24T01:17:50;99586.00;;;18.14;nan
21153;BME280;10734;44.792;20.482;2023-05-24T01:20:19;99583.28;;;18.14;nan
21153;BME280;10734;44.792;20.482;2023-05-24T01:23:04;99581.41;;;18.14;nan
21153;BME280;10734;44.792;20.482;2023-05-24T01:28:16;99581.41;;;18.14;nan
21153;BME280;10734;44.792;20.482;2023-05-24T01:30:44;99579.81;;;18.12;nan
21153;BME280;10734;44.792;20.482;2023-05-24T01:33:11;99584.13;;;18.05;nan
21153;BME280;10734;44.792;20.482;2023-05-24T01:35:38;99582.84;;;17.99;nan
21153;BME280;10734;44.792;20.482;2023-05-24T01:38:08;99581.13;;;17.88;nan
21153;BME280;10734;44.792;20.482;2023-05-24T01:40:38;99578.56;;;17.77;nan
21153;BME280;10734;44.792;20.482;2023-05-24T01:43:14;99583.25;;;17.75;nan
21153;BME280;10734;44.792;20.482;2023-05-24T01:45:54;99581.66;;;17.72;nan
21153;BME280;10734;44.792;20.482;2023-05-24T01:48:32;99583.41;;;17.64;nan
21153;BME280;10734;44.792;20.482;2023-05-24T01:51:04;99581.41;;;17.56;nan
21153;BME280;10734;44.792;20.482;2023-05-24T01:53:34;99578.81;;;17.55;nan
21153;BME280;10734;44.792;20.482;2023-05-24T01:56:05;99581.53;;;17.55;nan
21153;BME280;10734;44.792;20.482;2023-05-24T01:58:32;99578.97;;;17.53;nan
21153;BME280;10734;44.792;20.482;2023-05-24T02:01:00;99576.53;;;17.50;nan
21153;BME280;10734;44.792;20.482;2023-05-24T02:03:28;99578.50;;;17.48;nan
21153;BME280;10734;44.792;20.482;2023-05-24T02:05:54;99571.22;;;17.48;nan
21153;BME280;10734;44.792;20.482;2023-05-24T02:08:21;99579.38;;;17.48;nan
21153;BME280;10734;44.792;20.482;2023-05-24T02:10:49;99587.69;;;17.47;nan
21153;BME280;10734;44.792;20.482;2023-05-24T02:13:16;99606.03;;;17.45;nan
21153;BME280;10734;44.792;20.482;2023-05-24T02:15:45;99604.59;;;17.41;nan
21153;BME280;10734;44.792;20.482;2023-05-24T02:18:13;99611.72;;;17.32;nan
21153;BME280;10734;44.792;20.482;2023-05-24T03:14:30;99632.22;;;16.65;nan
21153;BME280;10734;44.792;20.482;2023-05-24T03:16:56;99642.50;;;16.62;nan
21153;BME280;10734;44.792;20.482;2023-05-24T03:19:23;99633.34;;;16.63;nan
21153;BME280;10734;44.792;20.482;2023-05-24T03:21:50;99633.94;;;16.66;nan
21153;BME280;10734;44.792;20.482;2023-05-24T03:24:17;99632.66;;;16.70;nan
21153;BME280;10734;44.792;20.482;2023-05-24T03:26:44;99637.84;;;16.73;nan
21153;BME280;10734;44.792;20.482;2023-05-24T03:29:11;99635.13;;;16.73;nan
21153;BME280;10734;44.792;20.482;2023-05-24T03:31:38;99631.44;;;16.74;nan
21153;BME280;10734;44.792;20.482;2023-05-24T03:34:05;99628.59;;;16.76;nan
21153;BME280;10734;44.792;20.482;2023-05-24T03:36:32;99626.59;;;16.78;nan
21153;BME280;10734;44.792;20.482;2023-05-24T03:38:58;99627.31;;;16.80;nan
21153;BME280;10734;44.792;20.482;2023-05-24T03:41:25;99630.50;;;16.85;nan
21153;BME280;10734;44.792;20.482;2023-05-24T03:43:53;99627.50;;;16.88;nan
21153;BME280;10734;44.792;20.482;2023-05-24T03:46:20;99645.13;;;16.94;nan
21153;BME280;10734;44.792;20.482;2023-05-24T03:48:47;99634.97;;;16.96;nan
21153;BME280;10734;44.792;20.482;2023-05-24T03:51:15;99640.72;;;17.02;nan
21153;BME280;10734;44.792;20.482;2023-05-24T03:53:42;99639.44;;;17.07;nan
21153;BME280;10734;44.792;20.482;2023-05-24T03:56:08;99642.47;;;17.13;nan
21153;BME280;10734;44.792;20.482;2023-05-24T03:58:35;99640.50;;;17.15;nan
21153;BME280;10734;44.792;20.482;2023-05-24T04:01:02;99638.19;;;17.20;nan
21153;BME280;10734;44.792;20.482;2023-05-24T04:03:29;99638.66;;;17.25;nan
21153;BME280;10734;44.792;20.482;2023-05-24T04:05:59;99634.50;;;17.31;nan
21153;BME280;10734;44.792;20.482;2023-05-24T04:08:26;99644.38;;;17.32;nan
21153;BME280;10734;44.792;20.482;2023-05-24T04:10:53;99642.69;;;17.41;nan
21153;BME280;10734;44.792;20.482;2023-05-24T04:13:21;99638.97;;;17.52;nan
21153;BME280;10734;44.792;20.482;2023-05-24T04:15:47;99633.56;;;17.61;nan
21153;BME280;10734;44.792;20.482;2023-05-24T04:18:14;99648.03;;;17.71;nan
21153;BME280;10734;44.792;20.482;2023-05-24T04:20:41;99634.31;;;17.83;nan
21153;BME280;10734;44.792;20.482;2023-05-24T04:23:08;99636.06;;;17.93;nan
21153;BME280;10734;44.792;20.482;2023-05-24T04:25:35;99637.91;;;18.03;nan
21153;BME280;10734;44.792;20.482;2023-05-24T04:28:02;99629.59;;;18.14;nan
21153;BME280;10734;44.792;20.482;2023-05-24T04:30:32;99637.59;;;18.25;nan
21153;BME280;10734;44.792;20.482;2023-05-24T04:32:59;99634.72;;;18.36;nan
21153;BME280;10734;44.792;20.482;2023-05-24T04:35:26;99634.69;;;18.46;nan
21153;BME280;10734;44.792;20.482;2023-05-24T04:37:53;99642.69;;;18.57;nan
21153;BME280;10734;44.792;20.482;2023-05-24T04:40:19;99646.25;;;18.67;nan
21153;BME280;10734;44.792;20.482;2023-05-24T04:42:46;99653.75;;;18.65;nan
21153;BME280;10734;44.792;20.482;2023-05-24T04:45:13;99655.19;;;18.60;nan
21153;BME280;10734;44.792;20.482;2023-05-24T04:47:40;99660.34;;;18.63;nan
21153;BME280;10734;44.792;20.482;2023-05-24T04:50:08;99657.59;;;18.82;nan
21153;BME280;10734;44.792;20.482;2023-05-24T04:52:34;99659.53;;;19.00;nan
21153;BME280;10734;44.792;20.482;2023-05-24T04:55:02;99656.56;;;19.21;nan
21153;BME280;10734;44.792;20.482;2023-05-24T04:57:29;99659.50;;;19.37;nan
21153;BME280;10734;44.792;20.482;2023-05-24T04:59:58;99663.19;;;19.46;nan
21153;BME280;10734;44.792;20.482;2023-05-24T05:02:26;99655.28;;;19.43;nan
21153;BME280;10734;44.792;20.482;2023-05-24T05:04:54;99665.00;;;19.55;nan
21153;BME280;10734;44.792;20.482;2023-05-24T05:07:21;99664.44;;;19.51;nan
21153;BME280;10734;44.792;20.482;2023-05-24T05:09:48;99663.00;;;19.57;nan
21153;BME280;10734;44.792;20.482;2023-05-24T05:12:16;99664.50;;;19.69;nan
21153;BME280;10734;44.792;20.482;2023-05-24T05:14:47;99663.19;;;19.73;nan
21153;BME280;10734;44.792;20.482;2023-05-24T05:17:14;99661.41;;;19.82;nan
21153;BME280;10734;44.792;20.482;2023-05-24T05:19:42;99659.38;;;20.02;nan
21153;BME280;10734;44.792;20.482;2023-05-24T05:22:12;99659.22;;;20.03;nan
21153;BME280;10734;44.792;20.482;2023-05-24T05:24:40;99660.13;;;20.30;nan
21153;BME280;10734;44.792;20.482;2023-05-24T05:27:08;99659.09;;;20.49;nan
21153;BME280;10734;44.792;20.482;2023-05-24T05:29:36;99669.97;;;20.59;nan
21153;BME280;10734;44.792;20.482;2023-05-24T05:32:05;99664.88;;;20.64;nan
21153;BME280;10734;44.792;20.482;2023-05-24T05:34:34;99671.47;;;20.53;nan
21153;BME280;10734;44.792;20.482;2023-05-24T05:37:03;99664.91;;;20.72;nan
21153;BME280;10734;44.792;20.482;2023-05-24T05:39:32;99668.59;;;20.89;nan
21153;BME280;10734;44.792;20.482;2023-05-24T05:42:00;99678.13;;;21.02;nan
21153;BME280;10734;44.792;20.482;2023-05-24T05:44:27;99672.56;;;21.20;nan
21153;BME280;10734;44.792;20.482;2023-05-24T05:46:55;99684.25;;;21.31;nan
21153;BME280;10734;44.792;20.482;2023-05-24T05:49:22;99680.53;;;21.40;nan
21153;BME280;10734;44.792;20.482;2023-05-24T05:51:50;99677.84;;;21.48;nan
21153;BME280;10734;44.792;20.482;2023-05-24T05:54:20;99682.69;;;21.62;nan
21153;BME280;10734;44.792;20.482;2023-05-24T05:56:47;99684.09;;;21.75;nan
21153;BME280;10734;44.792;20.482;2023-05-24T05:59:14;99692.97;;;21.60;nan
21153;BME280;10734;44.792;20.482;2023-05-24T06:01:42;99688.16;;;21.54;nan
21153;BME280;10734;44.792;20.482;2023-05-24T06:04:09;99697.38;;;21.53;nan
21153;BME280;10734;44.792;20.482;2023-05-24T06:06:36;99694.81;;;21.60;nan
21153;BME280;10734;44.792;20.482;2023-05-24T06:09:02;99702.59;;;21.72;nan
21153;BME280;10734;44.792;20.482;2023-05-24T06:11:29;99692.00;;;21.78;nan
21153;BME280;10734;44.792;20.482;2023-05-24T06:13:56;99695.03;;;21.66;nan
21153;BME280;10734;44.792;20.482;2023-05-24T06:16:23;99693.22;;;22.00;nan
21153;BME280;10734;44.792;20.482;2023-05-24T06:18:50;99696.44;;;21.79;nan
21153;BME280;10734;44.792;20.482;2023-05-24T06:21:30;99694.72;;;21.78;nan
21153;BME280;10734;44.792;20.482;2023-05-24T06:23:57;99701.31;;;22.01;nan
21153;BME280;10734;44.792;20.482;2023-05-24T06:26:25;99708.03;;;22.23;nan
21153;BME280;10734;44.792;20.482;2023-05-24T06:28:52;99711.19;;;21.94;nan
21153;BME280;10734;44.792;20.482;2023-05-24T06:31:19;99707.59;;;21.93;nan
21153;BME280;10734;44.792;20.482;2023-05-24T06:33:46;99704.00;;;21.93;nan
21153;BME280;10734;44.792;20.482;2023-05-24T06:36:28;99710.69;;;21.90;nan
21153;BME280;10734;44.792;20.482;2023-05-24T06:38:56;99711.56;;;21.99;nan
21153;BME280;10734;44.792;20.482;2023-05-24T06:41:23;99712.03;;;21.86;nan
21153;BME280;10734;44.792;20.482;2023-05-24T06:43:49;99720.72;;;21.73;nan
21153;BME280;10734;44.792;20.482;2023-05-24T06:46:16;99714.31;;;22.07;nan
21153;BME280;10734;44.792;20.482;2023-05-24T06:48:43;99726.38;;;22.23;nan
21153;BME280;10734;44.792;20.482;2023-05-24T06:51:10;99735.84;;;22.28;nan
21153;BME280;10734;44.792;20.482;2023-05-24T06:53:37;99737.53;;;22.37;nan
21153;BME280;10734;44.792;20.482;2023-05-24T06:56:04;99739.75;;;22.26;nan
21153;BME280;10734;44.792;20.482;2023-05-24T06:58:31;99745.41;;;22.24;nan
21153;BME280;10734;44.792;20.482;2023-05-24T07:00:58;99744.53;;;22.15;nan
21153;BME280;10734;44.792;20.482;2023-05-24T07:03:25;99748.59;;;22.03;nan
21153;BME280;10734;44.792;20.482;2023-05-24T07:05:52;99749.03;;;22.33;nan
21153;BME280;10734;44.792;20.482;2023-05-24T07:08:19;99754.69;;;22.39;nan
21153;BME280;10734;44.792;20.482;2023-05-24T07:10:46;99766.75;;;22.04;nan
21153;BME280;10734;44.792;20.482;2023-05-24T07:13:13;99787.06;;;22.19;nan
21153;BME280;10734;44.792;20.482;2023-05-24T07:15:40;99788.84;;;22.03;nan
21153;BME280;10734;44.792;20.482;2023-05-24T07:18:07;99789.31;;;21.90;nan
21153;BME280;10734;44.792;20.482;2023-05-24T07:20:34;99791.63;;;21.60;nan
21153;BME280;10734;44.792;20.482;2023-05-24T07:23:01;99797.38;;;21.05;nan
21153;BME280;10734;44.792;20.482;2023-05-24T07:25:29;99805.06;;;21.01;nan
21153;BME280;10734;44.792;20.482;2023-05-24T07:27:56;99804.25;;;21.09;nan
21153;BME280;10734;44.792;20.482;2023-05-24T07:30:24;99810.56;;;21.27;nan
21153;BME280;10734;44.792;20.482;2023-05-24T07:32:57;99827.13;;;21.26;nan
21153;BME280;10734;44.792;20.482;2023-05-24T07:35:24;99830.22;;;21.23;nan
21153;BME280;10734;44.792;20.482;2023-05-24T07:37:51;99837.06;;;20.83;nan
21153;BME280;10734;44.792;20.482;2023-05-24T07:40:18;99837.94;;;20.66;nan
21153;BME280;10734;44.792;20.482;2023-05-24T07:42:45;99845.94;;;20.49;nan
21153;BME280;10734;44.792;20.482;2023-05-24T07:45:13;99837.00;;;20.29;nan
21153;BME280;10734;44.792;20.482;2023-05-24T07:47:40;99848.66;;;20.31;nan
21153;BME280;10734;44.792;20.482;2023-05-24T07:50:08;99851.28;;;20.23;nan
21153;BME280;10734;44.792;20.482;2023-05-24T07:52:36;99855.41;;;20.09;nan
21153;BME280;10734;44.792;20.482;2023-05-24T07:55:05;99859.25;;;19.89;nan
21153;BME280;10734;44.792;20.482;2023-05-24T07:57:32;99854.59;;;19.99;nan
21153;BME280;10734;44.792;20.482;2023-05-24T07:59:59;99848.66;;;20.04;nan
21153;BME280;10734;44.792;20.482;2023-05-24T08:02:32;99860.00;;;20.09;nan
21153;BME280;10734;44.792;20.482;2023-05-24T08:05:00;99856.06;;;20.21;nan
21153;BME280;10734;44.792;20.482;2023-05-24T08:07:27;99859.44;;;20.33;nan
21153;BME280;10734;44.792;20.482;2023-05-24T08:09:55;99864.31;;;20.39;nan
21153;BME280;10734;44.792;20.482;2023-05-24T08:12:22;99863.81;;;20.53;nan
21153;BME280;10734;44.792;20.482;2023-05-24T08:14:51;99871.31;;;20.69;nan
21153;BME280;10734;44.792;20.482;2023-05-24T08:17:18;99871.63;;;20.84;nan
21153;BME280;10734;44.792;20.482;2023-05-24T08:19:45;99876.41;;;21.00;nan
21153;BME280;10734;44.792;20.482;2023-05-24T08:22:11;99872.59;;;21.19;nan
21153;BME280;10734;44.792;20.482;2023-05-24T08:24:39;99873.03;;;21.50;nan
21153;BME280;10734;44.792;20.482;2023-05-24T08:27:06;99883.56;;;21.89;nan
21153;BME280;10734;44.792;20.482;2023-05-24T08:29:35;99876.66;;;22.53;nan
21153;BME280;10734;44.792;20.482;2023-05-24T08:32:02;99879.16;;;23.22;nan
21153;BME280;10734;44.792;20.482;2023-05-24T08:34:29;99867.25;;;23.62;nan
21153;BME280;10734;44.792;20.482;2023-05-24T08:36:58;99871.09;;;23.28;nan
21153;BME280;10734;44.792;20.482;2023-05-24T08:39:25;99870.91;;;23.38;nan
21153;BME280;10734;44.792;20.482;2023-05-24T08:41:54;99876.47;;;23.94;nan
21153;BME280;10734;44.792;20.482;2023-05-24T08:44:58;99875.31;;;24.27;nan
21153;BME280;10734;44.792;20.482;2023-05-24T08:47:30;99880.56;;;24.45;nan
21153;BME280;10734;44.792;20.482;2023-05-24T08:49:57;99881.47;;;24.46;nan
21153;BME280;10734;44.792;20.482;2023-05-24T08:52:25;99881.34;;;24.62;nan
21153;BME280;10734;44.792;20.482;2023-05-24T08:54:54;99874.41;;;24.97;nan
21153;BME280;10734;44.792;20.482;2023-05-24T08:57:21;99874.97;;;25.16;nan
21153;BME280;10734;44.792;20.482;2023-05-24T08:59:48;99882.34;;;25.76;nan
21153;BME280;10734;44.792;20.482;2023-05-24T09:02:15;99880.66;;;26.19;nan
21153;BME280;10734;44.792;20.482;2023-05-24T09:04:45;99885.13;;;25.91;nan
21153;BME280;10734;44.792;20.482;2023-05-24T09:07:17;99888.00;;;26.12;nan
21153;BME280;10734;44.792;20.482;2023-05-24T09:09:52;99891.78;;;26.26;nan
21153;BME280;10734;44.792;20.482;2023-05-24T09:12:23;99895.75;;;26.38;nan
21153;BME280;10734;44.792;20.482;2023-05-24T09:15:03;99895.38;;;26.41;nan
21153;BME280;10734;44.792;20.482;2023-05-24T09:17:32;99899.22;;;26.11;nan
21153;BME280;10734;44.792;20.482;2023-05-24T09:19:59;99895.22;;;25.99;nan
21153;BME280;10734;44.792;20.482;2023-05-24T09:22:28;99896.38;;;25.66;nan
21153;BME280;10734;44.792;20.482;2023-05-24T09:24:59;99896.81;;;25.40;nan
21153;BME280;10734;44.792;20.482;2023-05-24T09:27:27;99904.16;;;25.86;nan
21153;BME280;10734;44.792;20.482;2023-05-24T09:29:55;99901.13;;;25.95;nan
21153;BME280;10734;44.792;20.482;2023-05-24T09:32:22;99901.59;;;25.99;nan
21153;BME280;10734;44.792;20.482;2023-05-24T09:34:54;99905.19;;;25.85;nan
21153;BME280;10734;44.792;20.482;2023-05-24T09:37:22;99903.09;;;25.87;nan
21153;BME280;10734;44.792;20.482;2023-05-24T09:39:55;99905.97;;;25.93;nan
21153;BME280;10734;44.792;20.482;2023-05-24T09:42:25;99906.09;;;26.66;nan
21153;BME280;10734;44.792;20.482;2023-05-24T09:45:05;99905.19;;;26.95;nan
21153;BME280;10734;44.792;20.482;2023-05-24T09:47:38;99903.66;;;26.93;nan
21153;BME280;10734;44.792;20.482;2023-05-24T09:50:12;99908.88;;;27.02;nan
21153;BME280;10734;44.792;20.482;2023-05-24T09:52:40;99907.16;;;27.01;nan
21153;BME280;10734;44.792;20.482;2023-05-24T09:55:15;99903.88;;;26.91;nan
21153;BME280;10734;44.792;20.482;2023-05-24T09:57:43;99894.97;;;26.59;nan
21153;BME280;10734;44.792;20.482;2023-05-24T10:00:11;99894.72;;;26.39;nan
21153;BME280;10734;44.792;20.482;2023-05-24T10:03:02;99897.50;;;26.10;nan
21153;BME280;10734;44.792;20.482;2023-05-24T10:05:30;99902.19;;;26.75;nan
21153;BME280;10734;44.792;20.482;2023-05-24T10:07:57;99899.00;;;27.36;nan
21153;BME280;10734;44.792;20.482;2023-05-24T10:10:29;99895.56;;;27.55;nan
21153;BME280;10734;44.792;20.482;2023-05-24T10:12:58;99900.25;;;27.33;nan
21153;BME280;10734;44.792;20.482;2023-05-24T10:15:25;99905.63;;;26.99;nan
21153;BME280;10734;44.792;20.482;2023-05-24T10:17:54;99893.91;;;26.97;nan
21153;BME280;10734;44.792;20.482;2023-05-24T10:20:22;99897.25;;;27.28;nan
21153;BME280;10734;44.792;20.482;2023-05-24T10:22:54;99900.94;;;27.14;nan
21153;BME280;10734;44.792;20.482;2023-05-24T10:25:26;99888.84;;;27.00;nan
21153;BME280;10734;44.792;20.482;2023-05-24T10:27:59;99891.44;;;26.80;nan
21153;BME280;10734;44.792;20.482;2023-05-24T10:30:36;99898.50;;;26.38;nan
21153;BME280;10734;44.792;20.482;2023-05-24T10:33:11;99894.81;;;26.82;nan
21153;BME280;10734;44.792;20.482;2023-05-24T10:35:39;99897.38;;;27.20;nan
21153;BME280;10734;44.792;20.482;2023-05-24T10:38:06;99896.72;;;27.18;nan
21153;BME280;10734;44.792;20.482;2023-05-24T10:40:34;99893.03;;;27.32;nan
21153;BME280;10734;44.792;20.482;2023-05-24T10:43:07;99891.06;;;27.54;nan
21153;BME280;10734;44.792;20.482;2023-05-24T10:45:40;99882.47;;;27.43;nan
21153;BME280;10734;44.792;20.482;2023-05-24T10:50:53;99883.91;;;27.60;nan
21153;BME280;10734;44.792;20.482;2023-05-24T10:53:37;99894.66;;;27.05;nan
21153;BME280;10734;44.792;20.482;2023-05-24T10:56:08;99894.56;;;26.77;nan
21153;BME280;10734;44.792;20.482;2023-05-24T10:58:57;99891.38;;;26.44;nan
21153;BME280;10734;44.792;20.482;2023-05-24T11:01:35;99891.31;;;25.93;nan
21153;BME280;10734;44.792;20.482;2023-05-24T11:04:09;99893.47;;;25.68;nan
21153;BME280;10734;44.792;20.482;2023-05-24T11:06:56;99897.31;;;25.97;nan
21153;BME280;10734;44.792;20.482;2023-05-24T11:09:27;99896.09;;;25.99;nan
21153;BME280;10734;44.792;20.482;2023-05-24T11:11:56;99893.78;;;25.88;nan
21153;BME280;10734;44.792;20.482;2023-05-24T11:14:30;99884.38;;;25.82;nan
21153;BME280;10734;44.792;20.482;2023-05-24T11:16:58;99894.56;;;25.82;nan
21153;BME280;10734;44.792;20.482;2023-05-24T11:19:45;99889.25;;;25.57;nan
21153;BME280;10734;44.792;20.482;2023-05-24T11:22:14;99888.47;;;25.48;nan
21153;BME280;10734;44.792;20.482;2023-05-24T11:24:45;99894.34;;;25.31;nan
21153;BME280;10734;44.792;20.482;2023-05-24T11:27:16;99889.13;;;25.13;nan
21153;BME280;10734;44.792;20.482;2023-05-24T11:29:46;99882.59;;;25.14;nan
21153;BME280;10734;44.792;20.482;2023-05-24T11:32:18;99888.72;;;24.93;nan
21153;BME280;10734;44.792;20.482;2023-05-24T11:34:47;99885.44;;;24.97;nan
21153;BME280;10734;44.792;20.482;2023-05-24T11:37:20;99883.47;;;24.83;nan
21153;BME280;10734;44.792;20.482;2023-05-24T11:40:04;99884.31;;;24.84;nan
21153;BME280;10734;44.792;20.482;2023-05-24T11:42:34;99877.88;;;24.68;nan
21153;BME280;10734;44.792;20.482;2023-05-24T11:45:08;99878.44;;;24.64;nan
21153;BME280;10734;44.792;20.482;2023-05-24T11:47:38;99880.41;;;24.78;nan
21153;BME280;10734;44.792;20.482;2023-05-24T11:50:09;99880.34;;;24.55;nan
21153;BME280;10734;44.792;20.482;2023-05-24T11:52:40;99879.00;;;24.51;nan
21153;BME280;10734;44.792;20.482;2023-05-24T11:55:11;99875.69;;;24.64;nan
21153;BME280;10734;44.792;20.482;2023-05-24T11:57:48;99881.50;;;25.38;nan
21153;BME280;10734;44.792;20.482;2023-05-24T12:00:28;99871.00;;;25.71;nan
21153;BME280;10734;44.792;20.482;2023-05-24T12:03:00;99873.91;;;25.92;nan
21153;BME280;10734;44.792;20.482;2023-05-24T12:05:35;99865.69;;;26.29;nan
21153;BME280;10734;44.792;20.482;2023-05-24T12:08:20;99866.13;;;26.62;nan
21153;BME280;10734;44.792;20.482;2023-05-24T12:10:48;99862.03;;;26.58;nan
21153;BME280;10734;44.792;20.482;2023-05-24T12:13:24;99854.38;;;26.75;nan
21153;BME280;10734;44.792;20.482;2023-05-24T12:15:54;99853.38;;;26.82;nan
21153;BME280;10734;44.792;20.482;2023-05-24T12:18:24;99846.22;;;27.09;nan
21153;BME280;10734;44.792;20.482;2023-05-24T12:20:52;99841.31;;;26.32;nan
21153;BME280;10734;44.792;20.482;2023-05-24T12:23:22;99829.94;;;25.91;nan
21153;BME280;10734;44.792;20.482;2023-05-24T12:25:49;99837.72;;;26.17;nan
21153;BME280;10734;44.792;20.482;2023-05-24T12:28:19;99838.19;;;26.21;nan
21153;BME280;10734;44.792;20.482;2023-05-24T12:30:48;99837.13;;;26.36;nan
21153;BME280;10734;44.792;20.482;2023-05-24T12:33:19;99837.31;;;26.50;nan
21153;BME280;10734;44.792;20.482;2023-05-24T12:35:47;99830.25;;;26.83;nan
21153;BME280;10734;44.792;20.482;2023-05-24T12:38:18;99837.00;;;27.02;nan
21153;BME280;10734;44.792;20.482;2023-05-24T12:40:51;99821.53;;;27.29;nan
21153;BME280;10734;44.792;20.482;2023-05-24T12:43:36;99826.88;;;27.59;nan
21153;BME280;10734;44.792;20.482;2023-05-24T12:46:04;99826.75;;;26.96;nan
21153;BME280;10734;44.792;20.482;2023-05-24T12:48:31;99832.94;;;26.77;nan
21153;BME280;10734;44.792;20.482;2023-05-24T12:50:58;99824.03;;;26.24;nan
21153;BME280;10734;44.792;20.482;2023-05-24T12:53:25;99820.44;;;26.45;nan
21153;BME280;10734;44.792;20.482;2023-05-24T12:55:53;99817.59;;;26.38;nan
21153;BME280;10734;44.792;20.482;2023-05-24T12:58:21;99822.34;;;27.02;nan
21153;BME280;10734;44.792;20.482;2023-05-24T13:00:48;99819.13;;;28.17;nan
21153;BME280;10734;44.792;20.482;2023-05-24T13:03:17;99818.28;;;28.71;nan
21153;BME280;10734;44.792;20.482;2023-05-24T13:05:46;99817.47;;;29.57;nan
21153;BME280;10734;44.792;20.482;2023-05-24T13:08:14;99812.75;;;29.91;nan
21153;BME280;10734;44.792;20.482;2023-05-24T13:10:42;99821.03;;;29.98;nan
21153;BME280;10734;44.792;20.482;2023-05-24T13:13:11;99822.28;;;30.22;nan
21153;BME280;10734;44.792;20.482;2023-05-24T13:15:38;99812.84;;;30.68;nan
21153;BME280;10734;44.792;20.482;2023-05-24T13:18:08;99811.63;;;30.57;nan
21153;BME280;10734;44.792;20.482;2023-05-24T13:20:35;99802.28;;;30.45;nan
21153;BME280;10734;44.792;20.482;2023-05-24T13:23:02;99797.06;;;30.16;nan
21153;BME280;10734;44.792;20.482;2023-05-24T13:25:29;99803.41;;;30.37;nan
21153;BME280;10734;44.792;20.482;2023-05-24T13:27:56;99800.13;;;30.47;nan
21153;BME280;10734;44.792;20.482;2023-05-24T13:30:23;99797.59;;;30.45;nan
21153;BME280;10734;44.792;20.482;2023-05-24T13:32:54;99796.09;;;30.43;nan
21153;BME280;10734;44.792;20.482;2023-05-24T13:35:21;99787.38;;;30.71;nan
21153;BME280;10734;44.792;20.482;2023-05-24T13:37:48;99787.19;;;30.66;nan
21153;BME280;10734;44.792;20.482;2023-05-24T13:40:16;99782.97;;;31.20;nan
21153;BME280;10734;44.792;20.482;2023-05-24T13:42:44;99767.53;;;31.24;nan
21153;BME280;10734;44.792;20.482;2023-05-24T13:45:11;99777.31;;;31.33;nan
21153;BME280;10734;44.792;20.482;2023-05-24T13:47:38;99774.41;;;31.46;nan
21153;BME280;10734;44.792;20.482;2023-05-24T13:50:08;99768.88;;;30.90;nan
21153;BME280;10734;44.792;20.482;2023-05-24T13:52:35;99770.25;;;31.05;nan
21153;BME280;10734;44.792;20.482;2023-05-24T13:55:03;99768.00;;;31.46;nan
21153;BME280;10734;44.792;20.482;2023-05-24T13:57:30;99762.69;;;29.33;nan
21153;BME280;10734;44.792;20.482;2023-05-24T14:00:16;99759.69;;;28.94;nan
21153;BME280;10734;44.792;20.482;2023-05-24T14:02:43;99749.81;;;29.58;nan
21153;BME280;10734;44.792;20.482;2023-05-24T14:05:10;99751.06;;;30.34;nan
21153;BME280;10734;44.792;20.482;2023-05-24T14:07:52;99746.28;;;29.05;nan
21153;BME280;10734;44.792;20.482;2023-05-24T14:10:20;99749.75;;;29.85;nan
21153;BME280;10734;44.792;20.482;2023-05-24T14:12:48;99741.66;;;29.83;nan
21153;BME280;10734;44.792;20.482;2023-05-24T14:15:29;99745.56;;;29.69;nan
21153;BME280;10734;44.792;20.482;2023-05-24T14:17:57;99738.72;;;28.45;nan
21153;BME280;10734;44.792;20.482;2023-05-24T14:20:24;99735.75;;;28.40;nan
21153;BME280;10734;44.792;20.482;2023-05-24T14:22:51;99729.81;;;27.54;nan
21153;BME280;10734;44.792;20.482;2023-05-24T14:25:19;99739.34;;;27.17;nan